createdAt,value
2023-02-11T00:00:34.923Z,6.00
2023-02-11T00:03:02.018Z,10.60
2023-02-11T00:05:29.234Z,6.07
2023-02-11T00:07:56.246Z,6.28
2023-02-11T00:10:23.439Z,5.53
2023-02-11T00:12:50.537Z,6.40
2023-02-11T00:15:17.990Z,5.75
2023-02-11T00:17:44.979Z,6.25
2023-02-11T00:20:12.448Z,6.95
2023-02-11T00:22:39.508Z,7.22
2023-02-11T00:25:06.920Z,8.02
2023-02-11T00:27:34.085Z,11.88
2023-02-11T00:30:02.459Z,9.90
2023-02-11T00:32:31.006Z,9.63
2023-02-11T00:34:58.255Z,6.70
2023-02-11T00:37:25.253Z,8.00
2023-02-11T00:39:52.463Z,6.28
2023-02-11T00:42:19.562Z,6.68
2023-02-11T00:44:46.563Z,6.53
2023-02-11T00:47:17.077Z,6.82
2023-02-11T00:49:44.404Z,5.95
2023-02-11T00:52:11.424Z,6.30
2023-02-11T00:54:38.528Z,6.07
2023-02-11T00:57:06.940Z,9.50
2023-02-11T00:59:33.961Z,8.52
2023-02-11T01:02:01.941Z,7.47
2023-02-11T01:04:28.966Z,6.28
2023-02-11T01:06:56.175Z,7.60
2023-02-11T01:09:25.193Z,6.90
2023-02-11T01:11:52.298Z,6.25
2023-02-11T01:14:19.362Z,7.05
2023-02-11T01:16:46.475Z,6.10
2023-02-11T01:19:13.768Z,7.15
2023-02-11T01:21:41.067Z,5.60
2023-02-11T01:24:08.267Z,6.50
2023-02-11T01:26:36.239Z,5.57
2023-02-11T01:29:04.058Z,5.80
2023-02-11T01:31:31.729Z,6.65
2023-02-11T01:34:01.271Z,5.60
2023-02-11T01:36:28.562Z,6.78
2023-02-11T01:38:55.767Z,6.15
2023-02-11T01:41:22.808Z,6.10
2023-02-11T01:43:50.905Z,6.05
2023-02-11T01:46:38.530Z,5.95
2023-02-11T01:49:15.298Z,6.03
2023-02-11T01:51:47.808Z,6.63
2023-02-11T01:54:40.728Z,6.30
2023-02-11T01:57:27.708Z,6.35
2023-02-11T01:59:58.146Z,5.90
2023-02-11T02:02:43.046Z,6.07
2023-02-11T02:05:16.794Z,5.95
2023-02-11T02:07:56.237Z,5.82
2023-02-11T02:10:26.557Z,5.63
2023-02-11T02:12:53.764Z,4.75
2023-02-11T02:15:34.032Z,6.20
2023-02-11T02:18:15.169Z,7.93
2023-02-11T02:20:51.458Z,8.30
2023-02-11T02:23:57.939Z,7.78
2023-02-11T02:26:54.038Z,11.18
2023-02-11T02:29:42.694Z,5.13
2023-02-11T02:32:33.665Z,5.07
2023-02-11T02:35:12.909Z,5.35
2023-02-11T02:37:52.212Z,7.45
2023-02-11T02:40:29.709Z,4.90
2023-02-11T02:42:58.514Z,4.63
2023-02-11T02:45:25.486Z,5.43
2023-02-11T02:47:52.687Z,7.05
2023-02-11T02:50:30.390Z,4.90
2023-02-11T02:53:20.520Z,4.15
2023-02-11T02:55:47.656Z,4.60
2023-02-11T02:58:33.506Z,4.30
2023-02-11T03:01:19.082Z,4.68
2023-02-11T03:04:01.677Z,4.60
2023-02-11T03:06:47.314Z,4.60
2023-02-11T03:09:40.537Z,5.22
2023-02-11T03:12:10.800Z,5.83
2023-02-11T03:14:39.116Z,6.32
2023-02-11T03:17:08.619Z,5.97
2023-02-11T03:19:38.968Z,4.65
2023-02-11T03:22:12.058Z,4.88
2023-02-11T03:24:41.532Z,4.63
2023-02-11T03:27:20.708Z,5.22
2023-02-11T03:29:59.733Z,6.53
2023-02-11T03:32:36.547Z,6.28
2023-02-11T03:35:21.769Z,6.65
2023-02-11T03:37:55.652Z,5.07
2023-02-11T03:40:32.791Z,5.28
2023-02-11T03:43:13.340Z,5.38
2023-02-11T03:45:41.283Z,7.53
2023-02-11T03:48:43.288Z,8.93
2023-02-11T03:51:12.883Z,8.07
2023-02-11T03:53:43.255Z,8.30
2023-02-11T03:56:18.074Z,6.68
2023-02-11T03:58:46.164Z,6.10
2023-02-11T04:01:13.413Z,5.78
2023-02-11T04:03:40.596Z,5.75
2023-02-11T04:06:08.116Z,6.38
2023-02-11T04:08:35.264Z,5.75
2023-02-11T04:11:02.418Z,6.10
2023-02-11T04:13:29.956Z,5.63
2023-02-11T04:15:57.050Z,6.00
2023-02-11T04:18:24.428Z,6.57
2023-02-11T04:20:51.634Z,6.07
2023-02-11T04:23:18.689Z,6.20
2023-02-11T04:25:45.877Z,5.70
2023-02-11T04:28:13.874Z,6.10
2023-02-11T04:30:41.251Z,6.45
2023-02-11T04:33:08.311Z,6.35
2023-02-11T04:35:35.480Z,7.00
2023-02-11T04:38:03.822Z,7.55
2023-02-11T04:40:30.984Z,7.25
2023-02-11T04:42:58.159Z,7.30
2023-02-11T04:45:25.258Z,5.95
2023-02-11T04:47:52.418Z,6.72
2023-02-11T04:50:19.580Z,6.38
2023-02-11T04:52:46.810Z,6.63
2023-02-11T04:55:14.054Z,6.22
2023-02-11T04:57:41.134Z,6.47
2023-02-11T05:00:10.142Z,6.53
2023-02-11T05:02:37.221Z,6.70
2023-02-11T05:05:05.199Z,7.25
2023-02-11T05:07:32.561Z,5.93
2023-02-11T05:09:59.695Z,7.40
2023-02-11T05:12:26.753Z,6.82
2023-02-11T05:14:53.975Z,6.85
2023-02-11T05:17:21.148Z,6.45
2023-02-11T05:19:48.426Z,7.15
2023-02-11T05:22:15.409Z,6.05
2023-02-11T05:24:42.564Z,6.85
2023-02-11T05:27:09.620Z,6.82
2023-02-11T05:29:36.812Z,6.13
2023-02-11T05:32:03.893Z,5.90
2023-02-11T05:34:31.101Z,6.45
2023-02-11T05:36:58.177Z,6.60
2023-02-11T05:39:25.258Z,6.53
2023-02-11T05:41:52.476Z,6.38
2023-02-11T05:44:19.496Z,5.85
2023-02-11T05:46:46.732Z,6.68
2023-02-11T05:49:13.744Z,6.20
2023-02-11T05:51:41.295Z,6.60
2023-02-11T05:54:08.400Z,6.80
2023-02-11T05:56:35.628Z,6.30
2023-02-11T05:59:02.819Z,7.45
2023-02-11T06:01:29.870Z,7.55
2023-02-11T06:03:57.352Z,7.80
2023-02-11T06:06:25.714Z,7.55
2023-02-11T06:08:52.780Z,6.85
2023-02-11T06:11:20.516Z,8.73
2023-02-11T06:13:47.565Z,6.82
2023-02-11T06:16:14.872Z,7.30
2023-02-11T06:18:42.018Z,7.47
2023-02-11T06:21:11.136Z,7.30
2023-02-11T06:23:39.014Z,6.55
2023-02-11T06:26:09.009Z,7.47
2023-02-11T06:28:36.552Z,6.25
2023-02-11T06:31:07.177Z,7.13
2023-02-11T06:33:35.259Z,7.10
2023-02-11T06:36:03.446Z,7.10
2023-02-11T06:38:30.723Z,6.72
2023-02-11T06:40:57.750Z,6.30
2023-02-11T06:43:24.785Z,6.18
2023-02-11T06:45:56.190Z,6.20
2023-02-11T06:48:24.297Z,5.60
2023-02-11T06:50:51.372Z,6.70
2023-02-11T06:53:18.554Z,6.10
2023-02-11T06:55:45.528Z,6.18
2023-02-11T06:58:12.716Z,6.18
2023-02-11T07:00:39.798Z,6.55
2023-02-11T07:03:06.988Z,8.57
2023-02-11T07:05:34.519Z,7.00
2023-02-11T07:08:01.747Z,6.22
2023-02-11T07:10:28.793Z,6.57
2023-02-11T07:12:58.637Z,6.97
2023-02-11T07:15:26.032Z,7.40
2023-02-11T07:17:53.180Z,7.55
2023-02-11T07:20:20.543Z,7.40
2023-02-11T07:22:47.611Z,8.00
2023-02-11T07:25:16.102Z,6.22
2023-02-11T07:27:43.385Z,7.78
2023-02-11T07:30:11.435Z,7.90
2023-02-11T07:32:38.441Z,7.60
2023-02-11T07:35:06.104Z,7.13
2023-02-11T07:37:36.336Z,7.05
2023-02-11T07:40:03.730Z,6.65
2023-02-11T07:42:32.001Z,7.68
2023-02-11T07:44:59.228Z,7.28
2023-02-11T07:47:26.317Z,7.10
2023-02-11T07:49:56.468Z,8.10
2023-02-11T07:52:23.988Z,7.40
2023-02-11T07:54:51.167Z,8.50
2023-02-11T07:57:18.602Z,7.50
2023-02-11T07:59:45.770Z,8.27
2023-02-11T08:02:12.820Z,6.53
2023-02-11T08:04:40.045Z,6.93
2023-02-11T08:07:07.246Z,7.20
2023-02-11T08:09:34.681Z,7.97
2023-02-11T08:12:01.851Z,7.25
2023-02-11T08:14:29.060Z,7.55
2023-02-11T08:16:56.101Z,8.18
2023-02-11T08:19:23.153Z,7.97
2023-02-11T08:21:50.669Z,9.60
2023-02-11T08:24:17.706Z,8.45
2023-02-11T08:26:44.891Z,7.90
2023-02-11T08:29:14.113Z,7.30
2023-02-11T08:31:43.420Z,7.43
2023-02-11T08:34:11.851Z,6.70
2023-02-11T08:36:40.455Z,6.03
2023-02-11T08:39:19.922Z,7.07
2023-02-11T08:41:50.080Z,6.03
2023-02-11T08:44:19.073Z,6.18
2023-02-11T08:46:46.764Z,6.45
2023-02-11T08:49:14.812Z,7.22
2023-02-11T08:51:42.265Z,6.78
2023-02-11T08:54:10.153Z,7.45
2023-02-11T08:56:39.213Z,6.63
2023-02-11T08:59:07.221Z,6.82
2023-02-11T09:01:34.500Z,6.93
2023-02-11T09:04:01.731Z,8.07
2023-02-11T09:06:29.265Z,6.22
2023-02-11T09:08:57.501Z,5.60
2023-02-11T09:11:36.018Z,6.00
2023-02-11T09:14:04.559Z,6.85
2023-02-11T09:16:33.962Z,7.20
2023-02-11T09:19:02.334Z,5.95
2023-02-11T09:21:30.460Z,5.60
2023-02-11T09:23:58.003Z,5.03
2023-02-11T09:26:28.016Z,4.82
2023-02-11T09:28:55.645Z,5.47
2023-02-11T09:31:26.302Z,7.05
2023-02-11T09:33:57.489Z,5.45
2023-02-11T09:36:30.541Z,5.60
2023-02-11T09:39:00.344Z,5.50
2023-02-11T09:41:49.417Z,5.18
2023-02-11T09:44:28.870Z,5.60
2023-02-11T09:47:15.830Z,6.03
2023-02-11T09:49:48.895Z,4.90
2023-02-11T09:52:18.704Z,8.00
2023-02-11T09:54:53.183Z,5.88
2023-02-11T09:57:28.676Z,5.53
2023-02-11T09:59:57.955Z,5.47
2023-02-11T10:02:48.057Z,7.43
2023-02-11T10:05:21.247Z,5.45
2023-02-11T10:08:07.855Z,6.25
2023-02-11T10:10:48.178Z,6.50
2023-02-11T10:13:30.712Z,6.93
2023-02-11T10:16:18.376Z,8.32
2023-02-11T10:19:07.507Z,5.55
2023-02-11T10:21:46.695Z,5.82
2023-02-11T10:24:16.163Z,5.97
2023-02-11T10:26:44.788Z,6.18
2023-02-11T10:29:16.661Z,9.38
2023-02-11T10:31:46.844Z,5.00
2023-02-11T10:34:15.536Z,6.13
2023-02-11T10:36:44.481Z,4.90
2023-02-11T10:39:17.795Z,4.90
2023-02-11T10:42:11.023Z,4.75
2023-02-11T10:45:00.654Z,5.30
2023-02-11T10:47:33.392Z,7.13
2023-02-11T10:50:03.818Z,5.45
2023-02-11T10:52:31.639Z,7.00
2023-02-11T10:55:24.667Z,5.95
2023-02-11T10:57:56.464Z,5.13
2023-02-11T11:00:29.417Z,4.60
2023-02-11T11:02:59.836Z,5.88
2023-02-11T11:05:46.596Z,4.55
2023-02-11T11:08:13.803Z,5.03
2023-02-11T11:10:44.915Z,6.07
2023-02-11T11:13:31.414Z,5.88
2023-02-11T11:16:13.496Z,6.50
2023-02-11T11:18:49.593Z,6.55
2023-02-11T11:21:36.914Z,5.18
2023-02-11T11:24:04.656Z,8.00
2023-02-11T11:26:48.090Z,4.95
2023-02-11T11:29:24.612Z,5.95
2023-02-11T11:31:54.156Z,6.40
2023-02-11T11:34:33.675Z,4.80
2023-02-11T11:37:10.730Z,4.88
2023-02-11T11:39:39.504Z,5.38
2023-02-11T11:42:28.700Z,5.53
2023-02-11T11:45:19.893Z,4.50
2023-02-11T11:47:58.839Z,7.50
2023-02-11T11:50:53.936Z,5.57
2023-02-11T11:53:21.537Z,4.13
2023-02-11T11:56:05.366Z,5.22
2023-02-11T11:58:32.816Z,4.90
2023-02-11T12:01:05.629Z,6.32
2023-02-11T12:03:51.743Z,6.43
2023-02-11T12:06:35.340Z,7.55
2023-02-11T12:09:18.020Z,5.55
2023-02-11T12:12:09.103Z,6.30
2023-02-11T12:14:36.270Z,5.25
2023-02-11T12:17:21.601Z,5.40
2023-02-11T12:19:57.633Z,5.97
2023-02-11T12:22:39.861Z,6.70
2023-02-11T12:25:28.410Z,6.38
2023-02-11T12:28:16.350Z,5.68
2023-02-11T12:31:34.035Z,5.97
2023-02-11T12:34:31.719Z,5.65
2023-02-11T12:37:09.439Z,5.07
2023-02-11T12:39:42.286Z,6.10
2023-02-11T12:42:55.900Z,5.68
2023-02-11T12:45:39.058Z,6.73
2023-02-11T12:48:13.026Z,4.93
2023-02-11T12:50:43.247Z,5.03
2023-02-11T12:53:41.490Z,5.60
2023-02-11T12:56:25.197Z,4.95
2023-02-11T13:01:37.028Z,5.95
2023-02-11T13:04:16.340Z,6.60
2023-02-11T13:06:56.350Z,5.10
2023-02-11T13:09:30.847Z,5.07
2023-02-11T13:12:22.548Z,5.95
2023-02-11T13:14:53.049Z,5.05
2023-02-11T13:17:36.340Z,6.57
2023-02-11T13:20:20.953Z,7.53
2023-02-11T13:23:10.333Z,6.18
2023-02-11T13:25:53.809Z,5.57
2023-02-11T13:28:28.568Z,4.45
2023-02-11T13:31:03.152Z,5.55
2023-02-11T13:33:39.678Z,4.72
2023-02-11T13:36:06.690Z,5.10
2023-02-11T13:38:34.558Z,4.88
2023-02-11T13:41:22.394Z,4.57
2023-02-11T13:44:22.396Z,5.47
2023-02-11T13:47:07.238Z,4.88
2023-02-11T13:49:42.979Z,6.10
2023-02-11T13:52:35.048Z,5.30
2023-02-11T13:55:21.820Z,4.95
2023-02-11T13:58:07.400Z,5.53
2023-02-11T14:00:34.385Z,5.25
2023-02-11T14:03:29.164Z,5.72
2023-02-11T14:06:37.424Z,5.40
2023-02-11T14:09:10.654Z,5.35
2023-02-11T14:12:16.443Z,6.30
2023-02-11T14:15:07.980Z,5.40
2023-02-11T14:17:35.495Z,5.70
2023-02-11T14:20:05.101Z,6.30
2023-02-11T14:22:47.968Z,5.78
2023-02-11T14:25:24.378Z,5.65
2023-02-11T14:28:02.326Z,4.80
2023-02-11T14:30:51.485Z,5.40
2023-02-11T14:33:48.043Z,5.57
2023-02-11T14:36:43.805Z,6.68
2023-02-11T14:39:32.879Z,6.03
2023-02-11T14:42:02.882Z,7.13
2023-02-11T14:44:33.276Z,7.55
2023-02-11T14:47:00.888Z,5.55
2023-02-11T14:49:32.294Z,6.40
2023-02-11T14:52:28.765Z,6.00
2023-02-11T14:55:17.708Z,6.10
2023-02-11T14:57:45.975Z,4.53
2023-02-11T15:00:22.452Z,5.00
2023-02-11T15:02:49.659Z,5.05
2023-02-11T15:05:26.213Z,5.43
2023-02-11T15:07:56.408Z,5.20
2023-02-11T15:10:44.298Z,5.05
2023-02-11T15:13:27.306Z,6.00
2023-02-11T15:16:10.102Z,6.90
2023-02-11T15:18:45.111Z,6.03
2023-02-11T15:21:12.470Z,7.45
2023-02-11T15:23:41.232Z,5.03
2023-02-11T15:26:18.120Z,6.70
2023-02-11T15:28:52.766Z,6.45
2023-02-11T15:31:23.559Z,6.13
2023-02-11T15:33:51.848Z,7.40
2023-02-11T15:36:24.040Z,4.43
2023-02-11T15:39:41.281Z,6.75
2023-02-11T15:42:27.842Z,5.63
2023-02-11T15:45:17.131Z,5.65
2023-02-11T15:47:51.488Z,5.85
2023-02-11T15:50:26.971Z,6.50
2023-02-11T15:52:56.369Z,5.97
2023-02-11T15:55:25.588Z,6.30
2023-02-11T15:57:57.384Z,6.15
2023-02-11T16:00:36.252Z,5.88
2023-02-11T16:03:03.778Z,6.10
2023-02-11T16:05:34.868Z,5.93
2023-02-11T16:08:27.142Z,6.45
2023-02-11T16:11:03.492Z,5.93
2023-02-11T16:13:43.502Z,5.15
2023-02-11T16:16:26.693Z,5.72
2023-02-11T16:19:05.218Z,5.93
2023-02-11T16:21:42.606Z,7.88
2023-02-11T16:24:20.367Z,6.38
2023-02-11T16:26:50.379Z,6.30
2023-02-11T16:29:37.990Z,6.72
2023-02-11T16:32:21.049Z,6.35
2023-02-11T16:34:51.076Z,6.00
2023-02-11T16:37:18.328Z,7.05
2023-02-11T16:39:45.547Z,6.90
2023-02-11T16:42:13.137Z,6.20
2023-02-11T16:44:40.161Z,6.78
2023-02-11T16:47:17.076Z,5.35
2023-02-11T16:49:44.310Z,5.25
2023-02-11T16:52:16.316Z,5.57
2023-02-11T16:54:43.539Z,6.05
2023-02-11T16:57:24.355Z,6.00
2023-02-11T16:59:52.301Z,5.45
2023-02-11T17:02:26.004Z,5.97
2023-02-11T17:04:55.410Z,5.45
2023-02-11T17:07:22.836Z,6.85
2023-02-11T17:09:50.292Z,6.68
2023-02-11T17:12:17.308Z,6.82
2023-02-11T17:14:44.405Z,5.65
2023-02-11T17:17:12.128Z,5.85
2023-02-11T17:19:39.676Z,6.28
2023-02-11T17:22:07.010Z,6.82
2023-02-11T17:24:34.187Z,8.20
2023-02-11T17:27:01.217Z,8.20
2023-02-11T17:29:28.724Z,7.07
2023-02-11T17:31:55.937Z,7.63
2023-02-11T17:34:23.989Z,8.32
2023-02-11T17:36:51.959Z,8.40
2023-02-11T17:39:21.236Z,9.20
2023-02-11T17:41:48.460Z,8.60
2023-02-11T17:44:16.629Z,9.40
2023-02-11T17:46:44.019Z,8.40
2023-02-11T17:49:12.462Z,8.68
2023-02-11T17:51:40.778Z,9.05
2023-02-11T17:54:11.393Z,8.80
2023-02-11T17:56:39.312Z,9.07
2023-02-11T17:59:08.643Z,9.15
2023-02-11T18:01:37.288Z,9.63
2023-02-11T18:04:05.446Z,10.68
2023-02-11T18:06:33.962Z,10.82
2023-02-11T18:09:04.428Z,10.05
2023-02-11T18:11:34.136Z,10.50
2023-02-11T18:14:07.890Z,11.00
2023-02-11T18:16:39.374Z,10.80
2023-02-11T18:19:07.884Z,10.35
2023-02-11T18:21:35.376Z,10.98
2023-02-11T18:24:06.527Z,12.30
2023-02-11T18:26:34.685Z,13.43
2023-02-11T18:29:02.037Z,12.95
2023-02-11T18:31:29.437Z,13.07
2023-02-11T18:33:56.631Z,12.77
2023-02-11T18:36:23.766Z,14.32
2023-02-11T18:38:52.758Z,13.95
2023-02-11T18:41:20.033Z,13.82
2023-02-11T18:43:47.217Z,14.30
2023-02-11T18:46:15.491Z,15.07
2023-02-11T18:48:44.936Z,15.32
2023-02-11T18:51:21.205Z,14.85
2023-02-11T18:53:48.386Z,14.05
2023-02-11T18:56:18.255Z,15.38
2023-02-11T18:58:45.486Z,14.85
2023-02-11T19:01:18.673Z,15.25
2023-02-11T19:03:45.991Z,15.77
2023-02-11T19:06:25.581Z,15.32
2023-02-11T19:08:55.913Z,15.40
2023-02-11T19:11:44.081Z,17.05
2023-02-11T19:14:11.797Z,17.25
2023-02-11T19:16:41.769Z,17.65
2023-02-11T19:19:09.626Z,18.35
2023-02-11T19:21:37.128Z,17.42
2023-02-11T19:24:08.335Z,18.10
2023-02-11T19:26:36.406Z,17.17
2023-02-11T19:29:05.817Z,17.17
2023-02-11T19:31:33.093Z,19.30
2023-02-11T19:34:02.008Z,18.33
2023-02-11T19:36:29.776Z,18.65
2023-02-11T19:39:01.052Z,17.63
2023-02-11T19:41:29.608Z,16.52
2023-02-11T19:43:57.159Z,16.48
2023-02-11T19:46:26.118Z,18.10
2023-02-11T19:48:53.694Z,17.50
2023-02-11T19:51:21.091Z,17.58
2023-02-11T19:53:49.001Z,18.00
2023-02-11T19:56:16.304Z,19.60
2023-02-11T19:58:44.347Z,17.40
2023-02-11T20:01:13.072Z,17.83
2023-02-11T20:03:42.417Z,16.40
2023-02-11T20:06:13.174Z,15.60
2023-02-11T20:08:41.402Z,15.93
2023-02-11T20:11:11.239Z,16.05
2023-02-11T20:13:38.694Z,15.70
2023-02-11T20:16:14.200Z,15.60
2023-02-11T20:18:41.373Z,17.25
2023-02-11T20:21:10.979Z,17.58
2023-02-11T20:23:40.350Z,15.95
2023-02-11T20:26:09.885Z,15.80
2023-02-11T20:28:37.301Z,15.68
2023-02-11T20:31:05.771Z,17.40
2023-02-11T20:33:34.932Z,15.60
2023-02-11T20:36:23.671Z,16.60
2023-02-11T20:38:51.668Z,15.70
2023-02-11T20:41:22.479Z,15.60
2023-02-11T20:43:53.278Z,15.23
2023-02-11T20:46:23.831Z,15.98
2023-02-11T20:48:52.212Z,15.85
2023-02-11T20:51:23.070Z,16.15
2023-02-11T20:53:54.270Z,16.23
2023-02-11T20:56:24.150Z,16.63
2023-02-11T20:58:51.614Z,17.40
2023-02-11T21:01:24.098Z,17.95
2023-02-11T21:04:02.566Z,17.30
2023-02-11T21:06:36.161Z,15.70
2023-02-11T21:09:05.722Z,16.10
2023-02-11T21:11:32.938Z,16.27
2023-02-11T21:14:02.534Z,15.82
2023-02-11T21:16:31.458Z,16.73
2023-02-11T21:18:58.728Z,17.73
2023-02-11T21:21:26.322Z,21.27
2023-02-11T21:23:53.379Z,19.73
2023-02-11T21:26:20.548Z,20.40
2023-02-11T21:28:48.827Z,19.50
2023-02-11T21:31:27.902Z,16.98
2023-02-11T21:33:55.672Z,15.88
2023-02-11T21:36:24.092Z,15.50
2023-02-11T21:38:51.291Z,17.00
2023-02-11T21:41:21.345Z,16.20
2023-02-11T21:43:49.209Z,16.65
2023-02-11T21:46:17.563Z,15.88
2023-02-11T21:48:44.851Z,15.52
2023-02-11T21:51:19.190Z,16.35
2023-02-11T21:53:46.600Z,16.70
2023-02-11T21:56:16.373Z,17.73
2023-02-11T21:58:43.865Z,18.45
2023-02-11T22:01:20.001Z,18.27
2023-02-11T22:03:47.884Z,18.90
2023-02-11T22:06:21.757Z,18.75
2023-02-11T22:08:50.246Z,19.52
2023-02-11T22:11:17.901Z,20.63
2023-02-11T22:13:45.998Z,20.73
2023-02-11T22:16:15.958Z,19.30
2023-02-11T22:18:47.109Z,18.88
2023-02-11T22:21:18.399Z,19.63
2023-02-11T22:23:46.130Z,18.88
2023-02-11T22:26:15.963Z,19.70
2023-02-11T22:28:43.855Z,19.70
2023-02-11T22:31:19.244Z,18.92
2023-02-11T22:33:46.998Z,18.67
2023-02-11T22:36:22.627Z,18.45
2023-02-11T22:38:50.336Z,18.33
2023-02-11T22:41:18.829Z,17.95
2023-02-11T22:43:46.432Z,18.20
2023-02-11T22:46:16.807Z,19.25
2023-02-11T22:48:44.255Z,17.50
2023-02-11T22:51:14.403Z,17.52
2023-02-11T22:53:43.778Z,17.52
2023-02-11T22:56:15.310Z,17.35
2023-02-11T22:58:43.268Z,18.48
2023-02-11T23:01:10.657Z,17.98
2023-02-11T23:03:37.842Z,16.90
2023-02-11T23:06:05.648Z,16.85
2023-02-11T23:08:33.802Z,16.48
2023-02-11T23:11:10.197Z,17.55
2023-02-11T23:13:39.836Z,17.25
2023-02-11T23:16:10.674Z,17.33
2023-02-11T23:18:39.532Z,16.48
2023-02-11T23:21:12.351Z,16.17
2023-02-11T23:23:40.141Z,16.13
2023-02-11T23:26:13.413Z,16.00
2023-02-11T23:28:41.090Z,16.05
2023-02-11T23:31:14.186Z,14.55
2023-02-11T23:33:41.381Z,13.77
2023-02-11T23:36:08.663Z,14.00
2023-02-11T23:38:35.847Z,13.27
2023-02-11T23:41:03.129Z,13.23
2023-02-11T23:43:30.542Z,13.68
2023-02-11T23:45:57.930Z,13.55
2023-02-11T23:48:26.044Z,14.18
2023-02-11T23:50:53.553Z,14.10
2023-02-11T23:53:20.731Z,13.02
2023-02-11T23:55:47.825Z,13.50
2023-02-11T23:58:16.845Z,12.82
